Time;durP1;ratioP1;P1;durP2;ratioP2;P2;SDS_P1;SDS_P2;PMS_P1;PMS_P2;Temp;Humidity;BMP_temperature;BMP_pressure;BME280_temperature;BME280_humidity;BME280_pressure;Samples;Min_cycle;Max_cycle;Signal;HPM_P1;HPM_P2
2022/06/06 00:01:37;;;;;;;9.43;8.73;;;;;;;;;;5009335;28;20049;-68
2022/06/06 00:04:03;;;;;;;10.57;8.88;;;;;;;;;;5008195;28;20029;-68
2022/06/06 00:06:29;;;;;;;9.98;9.05;;;;;;;;;;5009804;28;20042;-69
2022/06/06 00:08:55;;;;;;;9.35;8.65;;;;;;;;;;5010070;28;20065;-69
2022/06/06 00:11:20;;;;;;;9.50;8.68;;;;;;;;;;5008570;28;20088;-68
2022/06/06 00:13:47;;;;;;;8.85;8.25;;;;;;;;;;5011230;28;20029;-69
2022/06/06 00:16:13;;;;;;;9.88;9.00;;;;;;;;;;5005176;28;20217;-69
2022/06/06 00:18:39;;;;;;;9.95;8.80;;;;;;;;;;5012323;28;20044;-70
2022/06/06 00:21:08;;;;;;;9.15;8.55;;;;;;;;;;5011491;28;20281;-69
2022/06/06 00:23:34;;;;;;;9.25;8.55;;;;;;;;;;5013664;28;20058;-69
2022/06/06 00:26:01;;;;;;;9.80;8.73;;;;;;;;;;5009720;28;20056;-67
2022/06/06 00:28:27;;;;;;;9.30;8.70;;;;;;;;;;5008633;28;20124;-67
2022/06/06 00:30:57;;;;;;;12.57;8.85;;;;;;;;;;5013422;28;20585;-67
2022/06/06 00:36:08;;;;;;;11.00;9.32;;;;;;;;;;5009936;28;20033;-66
2022/06/06 00:38:33;;;;;;;10.15;9.35;;;;;;;;;;5015473;28;20035;-68
2022/06/06 00:40:59;;;;;;;10.30;9.23;;;;;;;;;;5016680;28;20752;-69
2022/06/06 00:43:25;;;;;;;10.63;9.77;;;;;;;;;;5015911;28;20779;-68
2022/06/06 00:45:54;;;;;;;9.48;8.75;;;;;;;;;;5013619;28;20034;-69
2022/06/06 00:48:39;;;;;;;11.02;9.40;;;;;;;;;;5011139;28;20116;-68
2022/06/06 00:51:14;;;;;;;9.77;9.07;;;;;;;;;;5016620;28;20551;-68
2022/06/06 00:53:43;;;;;;;11.10;9.88;;;;;;;;;;5009654;28;20531;-70
2022/06/06 00:56:15;;;;;;;9.82;8.65;;;;;;;;;;4993782;28;20060;-69
2022/06/06 00:58:42;;;;;;;10.10;9.25;;;;;;;;;;5014148;28;20039;-69
2022/06/06 01:01:08;;;;;;;9.98;9.27;;;;;;;;;;5006368;28;20029;-68
2022/06/06 01:03:37;;;;;;;10.23;9.38;;;;;;;;;;5014779;28;20037;-68
2022/06/06 01:06:04;;;;;;;10.10;9.10;;;;;;;;;;5011297;28;20042;-69
2022/06/06 01:08:31;;;;;;;9.63;8.73;;;;;;;;;;5017652;28;20296;-69
2022/06/06 01:10:56;;;;;;;9.43;8.68;;;;;;;;;;5010637;28;20034;-68
2022/06/06 01:13:23;;;;;;;9.70;8.85;;;;;;;;;;5014591;28;20045;-68
2022/06/06 01:16:00;;;;;;;9.90;8.82;;;;;;;;;;5008548;28;20034;-68
2022/06/06 01:18:36;;;;;;;10.60;8.93;;;;;;;;;;5012784;28;20052;-69
2022/06/06 01:21:19;;;;;;;10.05;9.15;;;;;;;;;;5019078;28;20117;-67
2022/06/06 01:24:52;;;;;;;9.35;8.70;;;;;;;;;;5006242;28;20046;-67
2022/06/06 01:27:35;;;;;;;9.68;8.88;;;;;;;;;;4913940;29;20050;-68
2022/06/06 01:30:07;;;;;;;10.25;9.45;;;;;;;;;;4957749;28;20104;-67
2022/06/06 01:32:57;;;;;;;9.90;9.05;;;;;;;;;;4974969;28;20513;-67
2022/06/06 01:35:27;;;;;;;10.15;9.13;;;;;;;;;;4968931;28;20065;-66
2022/06/06 01:37:53;;;;;;;10.10;9.23;;;;;;;;;;4973725;28;20133;-67
2022/06/06 01:40:20;;;;;;;10.07;9.15;;;;;;;;;;4974938;28;20089;-67
2022/06/06 01:42:54;;;;;;;10.18;9.38;;;;;;;;;;4970081;28;20121;-67
2022/06/06 01:45:35;;;;;;;11.85;9.35;;;;;;;;;;4969809;28;20478;-69
2022/06/06 01:48:06;;;;;;;14.13;9.68;;;;;;;;;;4979111;28;20593;-69
2022/06/06 01:50:32;;;;;;;10.18;9.27;;;;;;;;;;4972791;28;20788;-68
2022/06/06 01:53:04;;;;;;;11.95;9.82;;;;;;;;;;4971193;28;20042;-67
2022/06/06 01:55:32;;;;;;;9.95;9.10;;;;;;;;;;4971132;28;20061;-69
2022/06/06 01:58:03;;;;;;;10.50;9.70;;;;;;;;;;4968679;28;20125;-67
2022/06/06 02:00:32;;;;;;;9.98;9.00;;;;;;;;;;4974872;28;20050;-69
2022/06/06 02:02:58;;;;;;;10.48;9.57;;;;;;;;;;5003229;28;20117;-69
2022/06/06 02:05:24;;;;;;;10.23;9.30;;;;;;;;;;5016858;28;20132;-67
2022/06/06 02:07:49;;;;;;;10.95;9.93;;;;;;;;;;5014993;28;20029;-68
2022/06/06 02:10:17;;;;;;;10.60;9.63;;;;;;;;;;5016607;28;20046;-68
2022/06/06 02:12:43;;;;;;;10.73;9.73;;;;;;;;;;5013674;28;20041;-70
2022/06/06 02:15:12;;;;;;;11.05;10.00;;;;;;;;;;5016643;28;20060;-69
2022/06/06 02:17:38;;;;;;;;;;;;;;;;;;5016701;28;20107;-68
2022/06/06 02:20:05;;;;;;;9.88;8.88;;;;;;;;;;5016213;28;20380;-68
2022/06/06 02:22:32;;;;;;;13.45;9.73;;;;;;;;;;5019251;28;20065;-67
2022/06/06 02:24:58;;;;;;;10.30;9.25;;;;;;;;;;5012960;28;20061;-68
2022/06/06 02:27:24;;;;;;;10.63;9.63;;;;;;;;;;5006788;22;20046;-67
2022/06/06 02:29:50;;;;;;;12.90;10.57;;;;;;;;;;5000941;28;20026;-68
2022/06/06 02:32:15;;;;;;;10.90;10.05;;;;;;;;;;5001406;28;20547;-68
2022/06/06 02:34:41;;;;;;;11.60;10.50;;;;;;;;;;4987424;28;20034;-68
2022/06/06 02:37:07;;;;;;;11.38;10.25;;;;;;;;;;4985489;28;20641;-67
2022/06/06 02:39:32;;;;;;;12.43;10.05;;;;;;;;;;4987463;28;20205;-67
2022/06/06 02:41:58;;;;;;;11.05;10.05;;;;;;;;;;4985072;28;20520;-67
2022/06/06 02:44:24;;;;;;;11.20;10.07;;;;;;;;;;4984851;28;20046;-67
2022/06/06 02:46:50;;;;;;;10.60;9.63;;;;;;;;;;4985534;28;20038;-67
2022/06/06 02:49:16;;;;;;;10.30;9.50;;;;;;;;;;4987239;28;20661;-67
2022/06/06 02:51:42;;;;;;;11.73;10.07;;;;;;;;;;4986971;28;20069;-67
2022/06/06 02:54:08;;;;;;;11.73;10.63;;;;;;;;;;4984259;28;20457;-67
2022/06/06 02:56:34;;;;;;;12.15;10.95;;;;;;;;;;4988054;28;20061;-67
2022/06/06 02:59:04;;;;;;;11.80;10.40;;;;;;;;;;4986891;28;21374;-67
2022/06/06 03:01:30;;;;;;;15.90;10.60;;;;;;;;;;4981394;28;20072;-67
2022/06/06 03:03:55;;;;;;;15.00;10.73;;;;;;;;;;4982021;28;20061;-67
2022/06/06 03:06:46;;;;;;;10.95;9.95;;;;;;;;;;4985853;28;20038;-67
2022/06/06 03:09:36;;;;;;;12.00;10.90;;;;;;;;;;4986095;28;20039;-65
2022/06/06 03:12:21;;;;;;;12.48;10.75;;;;;;;;;;4983090;28;20034;-66
2022/06/06 03:15:15;;;;;;;11.20;10.13;;;;;;;;;;4986740;28;20046;-66
2022/06/06 03:21:19;;;;;;;11.27;9.65;;;;;;;;;;4977459;28;20061;-65
2022/06/06 03:24:31;;;;;;;14.20;10.70;;;;;;;;;;4978466;28;20085;-65
2022/06/06 03:27:19;;;;;;;11.75;10.70;;;;;;;;;;4985603;28;20042;-66
2022/06/06 03:29:56;;;;;;;11.95;10.90;;;;;;;;;;4981446;28;20027;-65
2022/06/06 03:32:54;;;;;;;12.15;10.82;;;;;;;;;;4984991;28;20429;-65
2022/06/06 03:35:32;;;;;;;12.50;11.40;;;;;;;;;;4941486;29;20039;-65
2022/06/06 03:38:07;;;;;;;13.40;11.07;;;;;;;;;;4941465;28;20051;-65
2022/06/06 03:40:37;;;;;;;12.20;11.18;;;;;;;;;;4936479;28;20183;-65
2022/06/06 03:43:31;;;;;;;13.75;10.90;;;;;;;;;;4944029;29;20035;-65
2022/06/06 03:46:10;;;;;;;13.25;11.98;;;;;;;;;;4941473;29;20686;-65
2022/06/06 03:49:12;;;;;;;15.63;13.82;;;;;;;;;;4942025;29;20122;-65
2022/06/06 03:51:59;;;;;;;15.05;13.55;;;;;;;;;;4943464;29;20043;-65
2022/06/06 03:54:30;;;;;;;14.57;13.00;;;;;;;;;;4936801;28;20053;-66
2022/06/06 03:57:15;;;;;;;13.82;12.30;;;;;;;;;;4943379;29;20043;-65
2022/06/06 03:59:45;;;;;;;13.70;12.23;;;;;;;;;;4942485;29;20538;-65
2022/06/06 04:02:19;;;;;;;13.10;11.73;;;;;;;;;;4941199;28;20063;-65
2022/06/06 04:04:46;;;;;;;13.98;11.85;;;;;;;;;;4943144;29;20130;-65
2022/06/06 04:07:12;;;;;;;13.18;10.90;;;;;;;;;;4944128;29;20134;-65
2022/06/06 04:09:37;;;;;;;11.55;10.35;;;;;;;;;;4945894;28;20630;-65
2022/06/06 04:12:12;;;;;;;12.90;11.30;;;;;;;;;;4983290;28;20046;-65
2022/06/06 04:15:03;;;;;;;11.60;10.55;;;;;;;;;;4988968;28;20493;-65
2022/06/06 04:17:38;;;;;;;10.68;9.80;;;;;;;;;;4986559;28;20450;-65
2022/06/06 04:20:16;;;;;;;11.30;10.18;;;;;;;;;;4985883;28;20096;-65
2022/06/06 04:22:54;;;;;;;10.05;9.35;;;;;;;;;;4988250;28;20034;-66
2022/06/06 04:25:23;;;;;;;9.52;8.82;;;;;;;;;;4988921;28;20509;-65
2022/06/06 04:28:01;;;;;;;8.93;8.30;;;;;;;;;;4982630;28;20030;-65
2022/06/06 04:30:47;;;;;;;8.90;8.20;;;;;;;;;;4985727;28;20104;-64
2022/06/06 04:33:23;;;;;;;9.73;8.70;;;;;;;;;;4985636;28;20069;-64
2022/06/06 04:36:02;;;;;;;9.63;8.77;;;;;;;;;;4984305;28;20480;-65
2022/06/06 04:38:38;;;;;;;9.07;8.27;;;;;;;;;;4986504;28;20446;-65
2022/06/06 04:41:11;;;;;;;8.95;8.25;;;;;;;;;;4983953;28;20172;-65
2022/06/06 04:43:50;;;;;;;8.88;7.97;;;;;;;;;;4989676;28;20034;-65
2022/06/06 04:46:24;;;;;;;8.90;8.18;;;;;;;;;;4982173;28;20094;-65
2022/06/06 04:48:51;;;;;;;8.00;7.35;;;;;;;;;;4985388;28;20050;-65
2022/06/06 04:51:19;;;;;;;8.80;8.00;;;;;;;;;;4989619;28;20041;-64
2022/06/06 04:53:47;;;;;;;9.07;8.27;;;;;;;;;;4988255;28;20488;-64
2022/06/06 04:56:15;;;;;;;8.83;8.03;;;;;;;;;;4989756;28;20039;-65
2022/06/06 04:58:42;;;;;;;8.95;8.30;;;;;;;;;;4987595;28;20044;-64
2022/06/06 05:01:10;;;;;;;8.02;7.43;;;;;;;;;;4986072;28;20088;-66
2022/06/06 05:03:35;;;;;;;8.60;7.90;;;;;;;;;;5015063;22;20038;-63
2022/06/06 05:06:23;;;;;;;8.63;7.82;;;;;;;;;;5006067;28;20038;-63
2022/06/06 05:09:00;;;;;;;8.38;7.57;;;;;;;;;;5009363;28;20045;-61
2022/06/06 05:12:00;;;;;;;8.20;7.55;;;;;;;;;;5004420;28;20050;-59
2022/06/06 05:14:35;;;;;;;8.20;7.60;;;;;;;;;;4982140;28;20118;-61
2022/06/06 05:17:06;;;;;;;7.57;6.75;;;;;;;;;;4989461;28;20163;-61
2022/06/06 05:19:50;;;;;;;8.38;7.40;;;;;;;;;;4984877;28;20119;-61
2022/06/06 05:22:34;;;;;;;7.85;7.20;;;;;;;;;;4981463;28;20038;-60
2022/06/06 05:25:14;;;;;;;8.85;7.13;;;;;;;;;;4987815;28;20133;-61
2022/06/06 05:28:04;;;;;;;7.85;7.25;;;;;;;;;;4993087;28;20077;-63
2022/06/06 05:30:45;;;;;;;8.15;7.45;;;;;;;;;;4984684;28;20042;-63
2022/06/06 05:33:17;;;;;;;8.07;7.38;;;;;;;;;;4988655;28;20030;-62
2022/06/06 05:36:10;;;;;;;8.40;7.70;;;;;;;;;;4989192;28;20038;-62
2022/06/06 05:38:38;;;;;;;9.05;7.80;;;;;;;;;;4983894;28;20704;-62
2022/06/06 05:41:29;;;;;;;8.48;7.60;;;;;;;;;;4987898;28;20125;-63
2022/06/06 05:44:24;;;;;;;9.00;8.20;;;;;;;;;;4987542;28;20481;-60
2022/06/06 05:47:19;;;;;;;9.85;8.10;;;;;;;;;;4986246;28;20049;-63
2022/06/06 05:49:54;;;;;;;9.43;8.52;;;;;;;;;;4989982;28;20030;-62
2022/06/06 05:52:53;;;;;;;9.40;8.63;;;;;;;;;;4988488;28;20610;-61
2022/06/06 05:55:41;;;;;;;8.45;7.70;;;;;;;;;;4981611;28;20397;-63
2022/06/06 05:58:16;;;;;;;8.25;7.55;;;;;;;;;;4987318;28;20045;-63
2022/06/06 06:01:09;;;;;;;8.15;7.45;;;;;;;;;;4987750;28;20066;-63
2022/06/06 06:03:40;;;;;;;8.55;7.70;;;;;;;;;;4983694;28;20740;-63
2022/06/06 06:06:06;;;;;;;8.48;7.65;;;;;;;;;;4988653;28;20034;-63
2022/06/06 06:08:40;;;;;;;8.25;7.50;;;;;;;;;;4991340;28;20126;-62
2022/06/06 06:11:44;;;;;;;7.68;7.10;;;;;;;;;;4986090;28;20105;-62
2022/06/06 06:14:15;;;;;;;7.63;7.03;;;;;;;;;;4992486;28;20073;-63
2022/06/06 06:16:47;;;;;;;7.45;6.90;;;;;;;;;;4989895;28;20034;-63
2022/06/06 06:19:19;;;;;;;8.20;7.50;;;;;;;;;;4981255;28;20069;-61
2022/06/06 06:21:57;;;;;;;8.68;7.78;;;;;;;;;;4990066;28;20057;-61
2022/06/06 06:24:30;;;;;;;7.43;6.85;;;;;;;;;;4988694;28;20719;-63
2022/06/06 06:26:57;;;;;;;10.95;8.07;;;;;;;;;;4984032;28;20057;-63
2022/06/06 06:29:22;;;;;;;10.95;7.60;;;;;;;;;;4982302;28;20045;-61
2022/06/06 06:31:57;;;;;;;8.05;7.25;;;;;;;;;;4990032;28;20046;-61
2022/06/06 06:34:31;;;;;;;8.30;7.60;;;;;;;;;;4984785;28;20709;-61
2022/06/06 06:37:34;;;;;;;10.73;7.45;;;;;;;;;;4984926;28;20123;-61
2022/06/06 06:40:09;;;;;;;8.27;7.53;;;;;;;;;;4984198;28;20034;-61
2022/06/06 06:42:51;;;;;;;7.43;6.85;;;;;;;;;;4984849;28;20089;-63
2022/06/06 06:45:28;;;;;;;8.60;8.00;;;;;;;;;;4978863;28;20058;-63
2022/06/06 06:48:20;;;;;;;10.88;7.70;;;;;;;;;;4985241;28;20046;-64
2022/06/06 06:51:04;;;;;;;8.27;7.47;;;;;;;;;;4985517;28;20033;-63
2022/06/06 06:54:01;;;;;;;7.88;7.28;;;;;;;;;;4981501;28;20530;-61
2022/06/06 06:56:38;;;;;;;8.23;7.53;;;;;;;;;;4987867;28;20048;-64
2022/06/06 06:59:21;;;;;;;8.20;7.60;;;;;;;;;;4984714;28;20165;-63
2022/06/06 07:10:57;;;;;;;7.75;7.15;;;;;;;;;;4983945;28;20039;-60
2022/06/06 07:13:34;;;;;;;8.88;7.40;;;;;;;;;;4984911;28;20460;-62
2022/06/06 07:16:18;;;;;;;8.35;7.57;;;;;;;;;;4981705;28;20050;-63
2022/06/06 07:18:47;;;;;;;7.65;7.05;;;;;;;;;;4980712;28;20065;-64
2022/06/06 07:21:15;;;;;;;7.13;6.53;;;;;;;;;;4986754;28;20062;-64
2022/06/06 07:23:42;;;;;;;7.53;6.93;;;;;;;;;;4986313;28;20049;-62
2022/06/06 07:26:10;;;;;;;7.68;6.97;;;;;;;;;;4979839;28;20025;-64
2022/06/06 07:28:35;;;;;;;7.43;6.83;;;;;;;;;;4983128;28;20561;-64
2022/06/06 07:31:12;;;;;;;7.95;7.25;;;;;;;;;;4979450;28;20141;-61
2022/06/06 07:33:52;;;;;;;7.35;6.75;;;;;;;;;;4980774;28;20034;-61
2022/06/06 07:36:55;;;;;;;7.32;6.72;;;;;;;;;;4985923;28;20113;-64
2022/06/06 07:39:52;;;;;;;7.15;6.40;;;;;;;;;;4983256;28;20160;-64
2022/06/06 07:42:48;;;;;;;6.75;6.25;;;;;;;;;;4983250;28;20039;-64
2022/06/06 07:45:23;;;;;;;7.22;6.72;;;;;;;;;;4988086;28;20689;-63
2022/06/06 07:48:07;;;;;;;7.45;6.70;;;;;;;;;;4988437;28;20100;-61
2022/06/06 07:50:42;;;;;;;7.38;6.47;;;;;;;;;;4988037;28;20046;-62
2022/06/06 07:53:23;;;;;;;8.73;6.32;;;;;;;;;;4987157;28;20038;-62
2022/06/06 07:56:04;;;;;;;7.10;6.60;;;;;;;;;;4987446;28;20719;-64
2022/06/06 07:59:01;;;;;;;7.28;6.57;;;;;;;;;;4987166;28;20034;-61
2022/06/06 08:01:40;;;;;;;6.85;6.35;;;;;;;;;;4981844;28;20053;-62
2022/06/06 08:04:29;;;;;;;6.88;6.35;;;;;;;;;;4994333;28;20042;-61
2022/06/06 08:07:04;;;;;;;6.47;5.97;;;;;;;;;;4988097;28;20037;-62
2022/06/06 08:09:38;;;;;;;6.80;6.20;;;;;;;;;;4983143;28;20038;-63
2022/06/06 08:12:27;;;;;;;7.65;5.95;;;;;;;;;;4983135;28;20029;-62
2022/06/06 08:15:07;;;;;;;8.35;7.22;;;;;;;;;;4988261;28;20042;-65
2022/06/06 08:17:48;;;;;;;6.30;5.78;;;;;;;;;;4987490;28;20041;-64
2022/06/06 08:20:19;;;;;;;7.85;7.00;;;;;;;;;;4981898;28;20095;-64
2022/06/06 08:22:45;;;;;;;7.13;6.50;;;;;;;;;;4989099;28;20475;-64
2022/06/06 08:25:14;;;;;;;6.80;6.20;;;;;;;;;;4987326;28;20054;-63
2022/06/06 08:27:45;;;;;;;;;;;;;;;;;;4985460;28;20042;-64
2022/06/06 08:30:12;;;;;;;7.47;6.78;;;;;;;;;;4985883;28;20008;-64
2022/06/06 08:32:38;;;;;;;8.15;6.97;;;;;;;;;;4988313;28;20460;-63
2022/06/06 08:35:04;;;;;;;6.43;5.90;;;;;;;;;;4984763;28;20041;-64
2022/06/06 08:37:57;;;;;;;6.75;6.22;;;;;;;;;;4981222;28;20046;-64
2022/06/06 08:40:44;;;;;;;6.30;5.80;;;;;;;;;;4987174;28;20055;-64
2022/06/06 08:43:27;;;;;;;6.40;5.80;;;;;;;;;;4983358;28;20109;-63
2022/06/06 08:45:59;;;;;;;8.40;5.90;;;;;;;;;;4985267;28;20045;-63
2022/06/06 08:48:38;;;;;;;6.80;6.20;;;;;;;;;;4988812;28;20181;-63
2022/06/06 08:51:16;;;;;;;6.50;5.88;;;;;;;;;;4992516;28;20027;-63
2022/06/06 08:53:48;;;;;;;6.20;5.63;;;;;;;;;;4985226;28;20477;-64
2022/06/06 08:56:51;;;;;;;6.35;5.85;;;;;;;;;;4980585;28;20060;-62
2022/06/06 09:00:12;;;;;;;5.93;5.35;;;;;;;;;;4988271;28;20401;-61
2022/06/06 09:02:59;;;;;;;6.85;5.70;;;;;;;;;;4988318;28;20097;-64
2022/06/06 09:05:43;;;;;;;6.00;5.60;;;;;;;;;;4988726;28;20501;-64
2022/06/06 09:08:55;;;;;;;6.10;5.35;;;;;;;;;;4988214;28;20038;-64
2022/06/06 09:11:59;;;;;;;6.90;5.60;;;;;;;;;;4985504;28;20116;-64
2022/06/06 09:15:04;;;;;;;6.57;6.07;;;;;;;;;;4985641;28;20133;-63
2022/06/06 09:18:02;;;;;;;6.47;5.97;;;;;;;;;;4982806;28;20046;-63
2022/06/06 09:20:33;;;;;;;8.07;5.50;;;;;;;;;;4985723;28;20486;-64
2022/06/06 09:23:12;;;;;;;5.68;5.20;;;;;;;;;;4986086;28;20133;-63
2022/06/06 09:25:58;;;;;;;6.28;4.57;;;;;;;;;;4988807;28;20565;-64
2022/06/06 09:28:24;;;;;;;4.97;4.57;;;;;;;;;;4984351;28;20046;-64
2022/06/06 09:31:27;;;;;;;5.05;4.68;;;;;;;;;;4985118;28;20422;-64
2022/06/06 09:34:30;;;;;;;5.10;4.70;;;;;;;;;;4982012;28;20046;-65
2022/06/06 09:37:26;;;;;;;4.80;4.40;;;;;;;;;;5004293;28;20116;-61
2022/06/06 09:40:06;;;;;;;5.30;4.80;;;;;;;;;;4975057;28;20035;-62
2022/06/06 09:42:50;;;;;;;4.90;4.50;;;;;;;;;;4985250;28;20042;-62
2022/06/06 09:45:33;;;;;;;6.00;4.55;;;;;;;;;;4982036;28;20046;-62
2022/06/06 09:48:04;;;;;;;4.80;4.40;;;;;;;;;;4981322;28;20070;-60
2022/06/06 09:50:36;;;;;;;4.65;4.25;;;;;;;;;;4990419;28;20042;-62
2022/06/06 09:53:29;;;;;;;4.40;4.00;;;;;;;;;;4989489;28;20041;-62
2022/06/06 10:01:45;;;;;;;4.88;4.38;;;;;;;;;;4981783;28;20085;-62
2022/06/06 10:04:48;;;;;;;4.60;4.30;;;;;;;;;;4981586;28;20040;-61
2022/06/06 10:07:38;;;;;;;4.53;4.03;;;;;;;;;;4988477;28;20061;-61
2022/06/06 10:10:13;;;;;;;4.95;4.65;;;;;;;;;;4989967;28;20433;-62
2022/06/06 10:12:50;;;;;;;4.82;4.43;;;;;;;;;;4985084;28;20070;-62
2022/06/06 10:15:29;;;;;;;4.30;3.90;;;;;;;;;;4992576;28;20405;-62
2022/06/06 10:18:27;;;;;;;4.85;4.40;;;;;;;;;;4990252;28;20046;-63
2022/06/06 10:21:23;;;;;;;4.82;4.20;;;;;;;;;;4982857;28;20144;-63
2022/06/06 10:24:23;;;;;;;4.32;3.92;;;;;;;;;;4983936;28;20046;-62
2022/06/06 10:27:29;;;;;;;4.95;4.65;;;;;;;;;;4991841;28;20046;-63
2022/06/06 10:30:12;;;;;;;5.55;4.03;;;;;;;;;;4983405;28;20026;-62
2022/06/06 10:33:03;;;;;;;4.47;4.07;;;;;;;;;;4983950;28;20118;-62
2022/06/06 10:35:29;;;;;;;4.45;3.90;;;;;;;;;;4988986;28;20066;-62
2022/06/06 10:38:38;;;;;;;4.43;4.03;;;;;;;;;;4986422;28;20042;-61
2022/06/06 10:41:14;;;;;;;4.47;4.07;;;;;;;;;;4987265;28;20031;-64
2022/06/06 10:43:58;;;;;;;4.15;3.90;;;;;;;;;;4997643;28;20034;-63
2022/06/06 10:46:31;;;;;;;6.03;4.82;;;;;;;;;;4985104;28;20045;-62
2022/06/06 10:49:12;;;;;;;7.65;4.55;;;;;;;;;;4994539;28;20484;-63
2022/06/06 10:52:15;;;;;;;5.03;4.20;;;;;;;;;;4984453;28;20038;-63
2022/06/06 10:55:15;;;;;;;4.40;4.00;;;;;;;;;;4978903;28;20043;-63
2022/06/06 10:57:47;;;;;;;4.97;4.57;;;;;;;;;;4986413;28;20659;-62
2022/06/06 11:00:15;;;;;;;4.30;4.00;;;;;;;;;;4999178;28;20049;-62
2022/06/06 11:03:12;;;;;;;4.50;4.20;;;;;;;;;;5002027;22;20030;-68
2022/06/06 11:05:59;;;;;;;4.10;3.70;;;;;;;;;;5000262;28;20266;-69
2022/06/06 11:08:47;;;;;;;4.18;3.88;;;;;;;;;;5004888;28;20045;-68
2022/06/06 11:12:00;;;;;;;4.28;4.03;;;;;;;;;;4998350;28;20670;-68
2022/06/06 11:14:34;;;;;;;4.72;4.32;;;;;;;;;;4984549;28;20487;-68
2022/06/06 11:17:19;;;;;;;4.80;4.30;;;;;;;;;;5002583;28;20408;-68
2022/06/06 11:20:06;;;;;;;4.50;4.20;;;;;;;;;;5002567;28;20057;-68
2022/06/06 11:22:36;;;;;;;4.90;4.50;;;;;;;;;;4999871;28;20066;-68
2022/06/06 11:25:11;;;;;;;4.90;4.60;;;;;;;;;;5000053;28;20069;-68
2022/06/06 11:28:14;;;;;;;5.03;4.28;;;;;;;;;;5002641;28;20080;-69
2022/06/06 11:30:46;;;;;;;4.55;4.15;;;;;;;;;;5000211;28;20037;-69
2022/06/06 11:33:50;;;;;;;5.05;4.65;;;;;;;;;;4994198;28;20042;-69
2022/06/06 11:36:49;;;;;;;4.70;4.30;;;;;;;;;;4966358;28;20370;-68
2022/06/06 11:39:24;;;;;;;5.10;4.70;;;;;;;;;;5002230;28;20037;-68
2022/06/06 11:42:04;;;;;;;5.43;4.93;;;;;;;;;;4999982;28;20034;-68
2022/06/06 11:44:54;;;;;;;5.80;4.85;;;;;;;;;;4999680;28;20354;-69
2022/06/06 11:47:39;;;;;;;5.47;5.07;;;;;;;;;;5000795;28;20034;-68
2022/06/06 11:50:29;;;;;;;5.70;5.20;;;;;;;;;;4999047;28;20539;-68
2022/06/06 11:53:32;;;;;;;5.32;4.93;;;;;;;;;;5001910;28;20038;-68
2022/06/06 11:56:39;;;;;;;5.70;5.28;;;;;;;;;;5002949;28;20036;-69
2022/06/06 11:59:26;;;;;;;5.15;4.75;;;;;;;;;;5000475;28;20095;-68
2022/06/06 12:02:17;;;;;;;5.38;4.88;;;;;;;;;;5002820;28;20050;-69
2022/06/06 12:05:09;;;;;;;6.50;4.82;;;;;;;;;;4995292;28;20030;-69
2022/06/06 12:07:51;;;;;;;5.50;5.00;;;;;;;;;;4999541;28;20034;-69
2022/06/06 12:10:22;;;;;;;5.60;5.07;;;;;;;;;;5000001;28;20088;-69
2022/06/06 12:13:19;;;;;;;5.38;4.88;;;;;;;;;;4999934;28;20038;-69
2022/06/06 12:16:15;;;;;;;5.63;5.10;;;;;;;;;;5003071;28;20044;-69
2022/06/06 12:18:59;;;;;;;5.68;5.28;;;;;;;;;;5001348;28;20221;-68
2022/06/06 12:21:44;;;;;;;5.47;4.97;;;;;;;;;;5001949;28;20064;-69
2022/06/06 12:24:40;;;;;;;5.28;4.78;;;;;;;;;;4999215;28;20408;-69
2022/06/06 12:27:15;;;;;;;5.15;4.50;;;;;;;;;;4999328;28;20044;-69
2022/06/06 12:29:43;;;;;;;5.57;5.10;;;;;;;;;;5005316;28;20041;-69
2022/06/06 12:32:42;;;;;;;4.82;4.53;;;;;;;;;;5006225;28;20037;-69
2022/06/06 12:35:46;;;;;;;6.85;5.22;;;;;;;;;;4974177;28;20073;-69
2022/06/06 12:38:15;;;;;;;5.25;4.90;;;;;;;;;;5007568;28;20140;-69
2022/06/06 12:40:59;;;;;;;;;;;;;;;;;;5005908;28;20416;-69
2022/06/06 12:43:40;;;;;;;5.13;4.78;;;;;;;;;;5005826;28;19995;-69
2022/06/06 12:46:08;;;;;;;6.18;5.68;;;;;;;;;;5001117;28;20513;-69
2022/06/06 12:48:52;;;;;;;5.30;4.90;;;;;;;;;;5007102;28;20034;-69
2022/06/06 12:51:30;;;;;;;5.07;4.70;;;;;;;;;;5006692;28;20059;-69
2022/06/06 12:55:26;;;;;;;5.40;5.00;;;;;;;;;;5004339;28;20037;-69
2022/06/06 12:57:30;;;;;;;4.93;4.63;;;;;;;;;;5003469;28;20046;-69
2022/06/06 13:00:10;;;;;;;5.60;5.13;;;;;;;;;;5003225;28;20041;-69
2022/06/06 13:02:39;;;;;;;5.20;4.90;;;;;;;;;;5005780;28;20516;-69
2022/06/06 13:05:25;;;;;;;4.82;4.43;;;;;;;;;;5004377;28;20064;-69
2022/06/06 13:08:06;;;;;;;5.10;4.80;;;;;;;;;;5002488;28;20119;-69
2022/06/06 13:11:08;;;;;;;5.50;5.10;;;;;;;;;;5004903;28;20038;-69
2022/06/06 13:13:55;;;;;;;4.78;4.47;;;;;;;;;;5004140;28;20041;-69
2022/06/06 13:16:27;;;;;;;5.13;4.72;;;;;;;;;;5000664;28;20050;-68
2022/06/06 13:19:16;;;;;;;5.13;4.72;;;;;;;;;;5004116;28;20113;-69
2022/06/06 13:22:13;;;;;;;5.60;5.20;;;;;;;;;;5000683;28;20526;-68
2022/06/06 13:24:50;;;;;;;5.43;5.13;;;;;;;;;;5003744;28;20029;-68
2022/06/06 13:27:47;;;;;;;5.80;5.30;;;;;;;;;;5003120;28;20066;-69
2022/06/06 13:30:36;;;;;;;5.40;5.00;;;;;;;;;;4986840;28;20042;-69
2022/06/06 13:33:20;;;;;;;;;;;;;;;;;;4994045;28;20065;-69
2022/06/06 13:36:09;;;;;;;5.43;5.03;;;;;;;;;;5004831;28;19913;-69
2022/06/06 13:38:53;;;;;;;;;;;;;;;;;;5004080;28;20508;-68
2022/06/06 13:41:56;;;;;;;5.40;5.10;;;;;;;;;;4999943;28;19929;-69
2022/06/06 13:44:49;;;;;;;5.57;5.20;;;;;;;;;;5003141;28;20559;-69
2022/06/06 13:47:43;;;;;;;5.25;4.88;;;;;;;;;;5002966;28;20057;-69
2022/06/06 13:50:23;;;;;;;5.47;5.00;;;;;;;;;;5004024;28;20030;-69
2022/06/06 13:53:20;;;;;;;5.97;5.50;;;;;;;;;;4988272;28;20107;-70
2022/06/06 13:55:46;;;;;;;5.72;5.30;;;;;;;;;;5005051;28;20038;-69
2022/06/06 13:58:46;;;;;;;5.70;5.30;;;;;;;;;;5000539;28;20042;-69
2022/06/06 14:01:27;;;;;;;9.25;5.35;;;;;;;;;;4992740;28;20057;-69
2022/06/06 14:04:24;;;;;;;5.57;5.25;;;;;;;;;;5002520;28;20042;-69
2022/06/06 14:07:15;;;;;;;5.30;4.90;;;;;;;;;;4989486;28;20046;-69
2022/06/06 14:09:43;;;;;;;6.13;5.20;;;;;;;;;;5002436;28;20049;-69
2022/06/06 14:12:31;;;;;;;5.93;5.40;;;;;;;;;;4998791;28;20084;-69
2022/06/06 14:15:03;;;;;;;5.57;5.18;;;;;;;;;;5004857;28;20033;-69
2022/06/06 14:17:32;;;;;;;6.03;5.57;;;;;;;;;;5003865;28;20072;-69
2022/06/06 14:20:10;;;;;;;5.57;5.18;;;;;;;;;;5006762;28;20469;-69
2022/06/06 14:22:40;;;;;;;5.47;4.97;;;;;;;;;;5000089;28;20061;-69
2022/06/06 14:25:07;;;;;;;5.75;5.18;;;;;;;;;;4997776;28;20287;-69
2022/06/06 14:27:34;;;;;;;4.95;4.63;;;;;;;;;;5002418;28;20038;-69
2022/06/06 14:30:07;;;;;;;5.85;5.40;;;;;;;;;;5000592;28;20034;-69
2022/06/06 14:32:48;;;;;;;5.28;4.80;;;;;;;;;;5000460;28;20037;-70
2022/06/06 14:35:17;;;;;;;5.40;5.00;;;;;;;;;;5000290;28;20092;-69
2022/06/06 14:37:45;;;;;;;5.38;5.03;;;;;;;;;;5001809;28;20061;-68
2022/06/06 14:40:31;;;;;;;6.00;5.45;;;;;;;;;;5000981;28;20091;-68
2022/06/06 14:42:57;;;;;;;5.43;4.97;;;;;;;;;;5001266;28;20527;-68
2022/06/06 14:45:29;;;;;;;5.72;5.30;;;;;;;;;;5000911;28;20062;-68
2022/06/06 14:48:00;;;;;;;7.10;4.57;;;;;;;;;;5004828;28;20107;-68
2022/06/06 14:50:47;;;;;;;5.60;5.10;;;;;;;;;;5001411;28;20038;-68
2022/06/06 14:53:28;;;;;;;5.50;5.00;;;;;;;;;;5001024;28;20041;-69
2022/06/06 14:56:01;;;;;;;5.47;5.07;;;;;;;;;;5001242;28;20045;-68
2022/06/06 14:58:30;;;;;;;5.35;5.05;;;;;;;;;;5001965;28;20034;-68
2022/06/06 15:01:01;;;;;;;5.80;5.40;;;;;;;;;;4994891;28;20034;-69
2022/06/06 15:03:39;;;;;;;5.68;5.28;;;;;;;;;;4999660;28;20053;-68
2022/06/06 15:06:14;;;;;;;5.70;5.25;;;;;;;;;;5004723;28;20121;-68
2022/06/06 15:08:48;;;;;;;5.63;5.20;;;;;;;;;;4992035;28;20038;-69
2022/06/06 15:11:19;;;;;;;6.10;5.53;;;;;;;;;;4985080;28;20042;-69
2022/06/06 15:13:54;;;;;;;7.65;6.95;;;;;;;;;;5001647;28;20034;-68
2022/06/06 15:16:23;;;;;;;5.70;5.30;;;;;;;;;;4998989;28;20387;-68
2022/06/06 15:18:56;;;;;;;5.30;4.87;;;;;;;;;;4999156;28;20037;-68
2022/06/06 15:21:35;;;;;;;5.68;5.00;;;;;;;;;;5001812;28;20053;-68
2022/06/06 15:24:03;;;;;;;5.50;5.10;;;;;;;;;;5001161;28;20412;-68
2022/06/06 15:26:41;;;;;;;6.18;5.65;;;;;;;;;;5000484;28;20657;-68
2022/06/06 15:29:21;;;;;;;6.13;5.60;;;;;;;;;;5000476;28;20033;-68
2022/06/06 15:31:52;;;;;;;5.68;5.20;;;;;;;;;;4997355;28;20121;-68
2022/06/06 15:34:21;;;;;;;5.78;5.38;;;;;;;;;;4998839;28;20045;-68
2022/06/06 15:36:50;;;;;;;6.53;5.72;;;;;;;;;;5001362;28;20045;-68
2022/06/06 15:39:15;;;;;;;5.80;5.43;;;;;;;;;;5003071;28;20259;-68
2022/06/06 15:41:52;;;;;;;5.10;4.70;;;;;;;;;;4995895;28;20042;-69
2022/06/06 15:44:42;;;;;;;6.38;5.88;;;;;;;;;;5000260;28;20048;-68
2022/06/06 15:47:39;;;;;;;5.70;5.30;;;;;;;;;;5000666;28;20026;-68
2022/06/06 15:50:19;;;;;;;6.43;5.55;;;;;;;;;;5005707;28;20313;-68
2022/06/06 15:53:22;;;;;;;5.30;4.90;;;;;;;;;;5003143;28;20477;-68
2022/06/06 15:56:03;;;;;;;5.50;5.10;;;;;;;;;;5002491;28;20030;-68
2022/06/06 15:58:57;;;;;;;5.30;4.90;;;;;;;;;;4991449;28;20084;-68
2022/06/06 16:01:40;;;;;;;6.55;6.05;;;;;;;;;;5001013;28;20038;-68
2022/06/06 16:04:47;;;;;;;5.95;5.50;;;;;;;;;;5000027;28;20033;-68
2022/06/06 16:07:32;;;;;;;5.68;5.28;;;;;;;;;;4997475;28;20493;-69
2022/06/06 16:10:17;;;;;;;5.30;4.82;;;;;;;;;;5005923;28;20034;-68
2022/06/06 16:12:42;;;;;;;5.93;5.32;;;;;;;;;;5007932;28;20380;-68
2022/06/06 16:15:30;;;;;;;5.65;5.20;;;;;;;;;;5004477;28;20033;-70